Time;durP1;ratioP1;P1;durP2;ratioP2;P2;SDS_P1;SDS_P2;PMS_P1;PMS_P2;Temp;Humidity;BMP_temperature;BMP_pressure;BME280_temperature;BME280_humidity;BME280_pressure;Samples;Min_cycle;Max_cycle;Signal;HPM_P1;HPM_P2
2023/01/19 00:00:22;;;;;;;63.80;28.10;;;;;;;3.19;100.00;97551.72;67814;1278;1016248;-59
2023/01/19 00:03:44;;;;;;;63.30;27.60;;;;;;;3.21;100.00;97557.43;67867;1277;1016067;-59
2023/01/19 00:06:47;;;;;;;65.40;29.60;;;;;;;2.98;100.00;97558.94;67848;1278;1016524;-59
2023/01/19 00:09:49;;;;;;;66.20;28.60;;;;;;;2.79;100.00;97554.19;67828;1277;1017144;-59
2023/01/19 00:12:54;;;;;;;82.00;35.40;;;;;;;2.71;100.00;97548.70;67793;1254;1016273;-60
2023/01/19 00:15:56;;;;;;;65.70;28.40;;;;;;;2.79;100.00;97548.48;67861;1277;1017314;-59
2023/01/19 00:18:59;;;;;;;60.90;27.10;;;;;;;2.76;100.00;97545.33;67869;1277;1016771;-60
2023/01/19 00:22:01;;;;;;;63.70;28.30;;;;;;;2.74;100.00;97543.91;67814;1277;1016523;-59
2023/01/19 00:25:04;;;;;;;59.20;27.20;;;;;;;2.74;100.00;97538.73;67818;1278;1016437;-59
2023/01/19 00:28:06;;;;;;;60.10;26.10;;;;;;;2.71;100.00;97538.71;67813;1277;1016460;-59
2023/01/19 00:31:08;;;;;;;64.10;28.10;;;;;;;2.69;100.00;97538.81;67757;1277;1016305;-59
2023/01/19 00:34:11;;;;;;;62.00;29.00;;;;;;;2.67;100.00;97546.52;67870;1278;1016958;-59
2023/01/19 00:37:13;;;;;;;58.60;25.60;;;;;;;2.75;100.00;97550.24;67800;1277;1016373;-60
2023/01/19 00:40:16;;;;;;;56.70;24.80;;;;;;;2.79;100.00;97556.64;67759;1278;1016369;-59
2023/01/19 00:43:18;;;;;;;60.90;27.70;;;;;;;2.81;100.00;97561.52;67835;1277;1016187;-59
2023/01/19 00:46:26;;;;;;;62.10;27.00;;;;;;;2.77;100.00;97568.09;67875;1278;1016797;-59
2023/01/19 00:49:28;;;;;;;66.30;28.40;;;;;;;2.71;100.00;97570.84;67807;1278;1016219;-59
2023/01/19 00:52:31;;;;;;;60.60;26.50;;;;;;;2.58;100.00;97571.46;67835;1278;1016011;-59
2023/01/19 00:55:33;;;;;;;51.80;24.00;;;;;;;2.55;100.00;97568.48;67798;1278;1016401;-59
2023/01/19 00:58:35;;;;;;;55.30;23.90;;;;;;;2.58;100.00;97568.15;67860;1277;1016503;-59
2023/01/19 01:01:38;;;;;;;52.40;23.30;;;;;;;2.62;100.00;97567.95;67822;1277;1019585;-59
2023/01/19 01:04:40;;;;;;;54.90;23.10;;;;;;;2.67;100.00;97567.91;67808;1277;1016419;-59
2023/01/19 01:07:45;;;;;;;53.20;23.50;;;;;;;2.72;100.00;97563.02;67868;1278;1016245;-60
2023/01/19 01:10:48;;;;;;;54.50;24.10;;;;;;;2.75;100.00;97563.55;67801;1278;1016386;-59
2023/01/19 01:13:51;;;;;;;62.60;25.90;;;;;;;2.76;100.00;97567.80;67806;1277;1016463;-59
2023/01/19 01:16:54;;;;;;;60.20;25.30;;;;;;;2.69;100.00;97562.48;67762;1254;1018343;-59
2023/01/19 01:19:56;;;;;;;58.70;26.60;;;;;;;2.47;100.00;97562.13;67818;1277;1016390;-59
2023/01/19 01:22:59;;;;;;;48.40;21.90;;;;;;;2.40;100.00;97554.86;67829;1278;1016468;-60
2023/01/19 01:26:02;;;;;;;55.50;24.00;;;;;;;2.40;100.00;97551.80;67857;1278;1017008;-59
2023/01/19 01:29:04;;;;;;;;;;;;;;;2.40;100.00;97549.39;67809;1278;1018933;-59
2023/01/19 01:32:07;;;;;;;60.60;28.10;;;;;;;2.46;100.00;97538.39;67813;1278;1017476;-59
2023/01/19 01:35:09;;;;;;;72.20;31.50;;;;;;;2.46;100.00;97534.94;67883;1278;1016510;-59
2023/01/19 01:38:11;;;;;;;64.70;28.20;;;;;;;2.46;100.00;97535.97;67815;1277;1016342;-59
2023/01/19 01:41:14;;;;;;;58.50;27.20;;;;;;;2.47;100.00;97546.12;67853;1278;1016375;-59
2023/01/19 01:44:16;;;;;;;54.80;25.50;;;;;;;2.49;100.00;97552.41;67810;1278;1016981;-59
2023/01/19 01:47:19;;;;;;;55.70;26.10;;;;;;;2.55;100.00;97550.17;67821;1278;1016408;-59
2023/01/19 01:50:21;;;;;;;60.10;26.90;;;;;;;2.66;100.00;97546.02;67861;1277;1018510;-59
2023/01/19 01:53:23;;;;;;;67.80;28.30;;;;;;;2.73;100.00;97542.25;67868;1277;1017241;-59
2023/01/19 01:56:26;;;;;;;58.40;25.20;;;;;;;2.86;100.00;97541.10;67869;1278;1016510;-59
2023/01/19 01:59:33;;;;;;;50.30;22.60;;;;;;;2.68;100.00;97536.98;67819;1278;1016445;-59
2023/01/19 02:02:52;;;;;;;52.60;22.60;;;;;;;2.33;100.00;97531.91;67840;1277;1017284;-59
2023/01/19 02:05:56;;;;;;;50.80;23.00;;;;;;;2.22;100.00;97534.55;67794;1277;1016168;-59
2023/01/19 02:15:39;;;;;;;71.00;30.30;;;;;;;2.29;100.00;97540.92;67786;1278;1016465;-60
2023/01/19 02:18:41;;;;;;;60.10;26.20;;;;;;;2.29;100.00;97537.63;67807;1278;1016485;-59
2023/01/19 02:21:44;;;;;;;;;;;;;;;2.22;100.00;97539.35;67865;1277;1016276;-59
2023/01/19 02:24:48;;;;;;;64.10;28.40;;;;;;;2.18;100.00;97534.19;67836;1278;1016452;-60
2023/01/19 02:27:51;;;;;;;61.00;26.20;;;;;;;2.16;100.00;97533.42;67841;1277;1016657;-59
2023/01/19 02:30:53;;;;;;;59.40;25.70;;;;;;;2.27;100.00;97534.27;67756;1277;1016326;-59
2023/01/19 02:33:56;;;;;;;60.60;24.90;;;;;;;2.37;100.00;97538.27;67812;1278;1016200;-59
2023/01/19 02:36:58;;;;;;;59.60;25.70;;;;;;;2.40;100.00;97541.95;67805;1277;1016406;-60
2023/01/19 02:40:01;;;;;;;57.40;25.00;;;;;;;2.45;100.00;97540.86;67846;1278;1018178;-59
2023/01/19 02:43:04;;;;;;;66.70;27.70;;;;;;;2.34;100.00;97542.05;67802;1278;1019258;-59
2023/01/19 02:46:07;;;;;;;64.10;28.00;;;;;;;2.26;100.00;97543.66;67767;1256;1016498;-60
2023/01/19 02:49:10;;;;;;;64.90;27.50;;;;;;;2.30;100.00;97540.55;67834;1277;1016509;-59
2023/01/19 02:52:14;;;;;;;69.00;29.20;;;;;;;2.30;100.00;97538.45;67798;1277;1016351;-60
2023/01/19 02:58:54;;;;;;;72.20;29.50;;;;;;;2.36;100.00;97525.58;67821;1277;1016644;-59
2023/01/19 03:01:57;;;;;;;73.30;29.60;;;;;;;2.41;100.00;97527.92;67843;1278;1016339;-59
2023/01/19 03:04:59;;;;;;;79.80;31.50;;;;;;;2.38;100.00;97528.21;67826;1278;1016248;-60
2023/01/19 03:08:02;;;;;;;;;;;;;;;2.38;100.00;97525.09;67835;1278;1016422;-60
2023/01/19 03:11:04;;;;;;;69.70;29.70;;;;;;;2.40;100.00;97529.34;67789;1277;1016185;-59
2023/01/19 03:14:07;;;;;;;76.50;29.50;;;;;;;2.48;100.00;97536.39;67853;1278;1016298;-59
2023/01/19 03:17:10;;;;;;;62.60;28.00;;;;;;;2.43;100.00;97531.24;67810;1278;1016422;-59
2023/01/19 03:20:13;;;;;;;58.00;27.00;;;;;;;2.33;100.00;97532.62;67788;1278;1016418;-59
2023/01/19 03:23:15;;;;;;;56.60;25.40;;;;;;;2.24;100.00;97534.92;67845;1278;1019309;-60
2023/01/19 03:26:18;;;;;;;56.70;25.60;;;;;;;2.23;100.00;97535.85;67792;1278;1016212;-59
2023/01/19 03:29:20;;;;;;;59.70;26.90;;;;;;;2.34;100.00;97542.03;67793;1278;1016082;-59
2023/01/19 03:32:23;;;;;;;59.50;28.00;;;;;;;2.34;100.00;97541.04;67792;1278;1018631;-59
2023/01/19 03:35:25;;;;;;;65.60;26.20;;;;;;;2.33;100.00;97543.67;67758;1278;1018659;-59
2023/01/19 03:38:28;;;;;;;60.80;27.70;;;;;;;2.33;100.00;97546.41;67844;1278;1016488;-59
2023/01/19 03:41:30;;;;;;;58.80;27.70;;;;;;;2.37;100.00;97549.52;67792;1278;1016375;-60
2023/01/19 03:44:32;;;;;;;57.50;26.50;;;;;;;2.38;100.00;97556.00;67740;1277;1016546;-59
2023/01/19 03:47:35;;;;;;;61.50;27.10;;;;;;;2.54;100.00;97554.74;67795;1278;1016488;-59
2023/01/19 03:50:37;;;;;;;54.00;24.30;;;;;;;2.55;100.00;97557.08;67793;1277;1017091;-59
2023/01/19 03:53:40;;;;;;;54.80;24.10;;;;;;;2.44;100.00;97554.70;67855;1277;1016259;-59
2023/01/19 03:56:43;;;;;;;56.10;26.00;;;;;;;2.36;100.00;97551.11;67791;1278;1016588;-59
2023/01/19 03:59:46;;;;;;;49.20;23.90;;;;;;;2.52;100.00;97546.04;67832;1278;1016123;-59
2023/01/19 04:02:49;;;;;;;54.50;25.00;;;;;;;2.36;100.00;97552.15;67802;1278;1016449;-59
2023/01/19 04:05:51;;;;;;;50.50;23.10;;;;;;;2.28;100.00;97557.67;67856;1278;1016477;-60
2023/01/19 04:08:54;;;;;;;50.90;23.10;;;;;;;2.14;100.00;97551.98;67816;1278;1016494;-59
2023/01/19 04:11:57;;;;;;;;;;;;;;;2.04;100.00;97549.88;67814;1278;1016412;-59
2023/01/19 04:14:59;;;;;;;74.80;30.50;;;;;;;2.05;100.00;97555.67;67828;1277;1016447;-60
2023/01/19 04:18:02;;;;;;;59.70;26.60;;;;;;;2.04;100.00;97561.25;67847;1278;1016547;-59
2023/01/19 04:21:04;;;;;;;53.90;23.30;;;;;;;2.17;100.00;97569.07;67806;1278;1016549;-59
2023/01/19 04:24:07;;;;;;;49.70;21.70;;;;;;;2.28;100.00;97576.64;67783;1277;1016181;-59
2023/01/19 04:27:09;;;;;;;63.50;28.60;;;;;;;2.34;100.00;97582.40;67798;1278;1016488;-59
2023/01/19 04:30:11;;;;;;;57.80;24.80;;;;;;;2.29;100.00;97582.14;67844;1278;1016018;-59
2023/01/19 04:33:14;;;;;;;56.70;26.00;;;;;;;2.15;100.00;97584.33;67825;1277;1016481;-59
2023/01/19 04:36:16;;;;;;;70.10;33.30;;;;;;;2.10;100.00;97579.94;67738;1277;1016281;-59
2023/01/19 04:39:19;;;;;;;69.00;31.70;;;;;;;2.08;100.00;97591.23;67739;1278;1016632;-59
2023/01/19 04:42:21;;;;;;;82.40;35.10;;;;;;;2.21;100.00;97600.80;67754;1278;1016433;-59
2023/01/19 04:45:24;;;;;;;;;;;;;;;2.36;100.00;97612.19;67819;1278;1016252;-59
2023/01/19 04:48:26;;;;;;;74.70;32.30;;;;;;;2.43;100.00;97615.66;67795;1278;1016363;-59
2023/01/19 04:51:29;;;;;;;67.50;30.90;;;;;;;2.58;100.00;97608.91;67813;1278;1016292;-59
2023/01/19 04:54:31;;;;;;;86.20;38.90;;;;;;;2.92;100.00;97604.50;67841;1278;1016481;-60
2023/01/19 04:57:34;;;;;;;61.00;26.50;;;;;;;2.87;100.00;97601.29;67843;1278;1016455;-59
2023/01/19 05:00:36;;;;;;;57.40;25.10;;;;;;;2.61;100.00;97611.00;67830;1277;1016303;-59
2023/01/19 05:03:39;;;;;;;63.30;27.50;;;;;;;2.43;100.00;97612.54;67805;1278;1016188;-59
2023/01/19 05:06:41;;;;;;;62.60;27.00;;;;;;;2.47;100.00;97613.59;67795;1278;1016386;-59
2023/01/19 05:09:44;;;;;;;52.90;23.40;;;;;;;2.51;100.00;97614.61;67818;1278;1016397;-60
2023/01/19 05:12:46;;;;;;;55.60;24.30;;;;;;;2.67;100.00;97611.56;67771;1278;1016473;-60
2023/01/19 05:15:49;;;;;;;57.50;26.40;;;;;;;2.62;100.00;97624.44;67813;1278;1016149;-59
2023/01/19 05:18:51;;;;;;;;;;;;;;;2.57;100.00;97637.09;67838;1278;1016379;-59
2023/01/19 05:21:54;;;;;;;68.90;30.20;;;;;;;2.52;100.00;97645.43;67839;1278;1016311;-59
2023/01/19 05:24:57;;;;;;;;;;;;;;;2.49;100.00;97659.20;67784;1278;1016464;-59
2023/01/19 05:27:59;;;;;;;;;;;;;;;2.46;100.00;97660.90;67862;1278;1016410;-59
2023/01/19 05:31:02;;;;;;;63.30;29.80;;;;;;;2.56;100.00;97658.53;67805;1278;1016667;-59
2023/01/19 05:34:04;;;;;;;59.90;28.80;;;;;;;2.59;100.00;97659.76;67828;1278;1015802;-59
2023/01/19 05:37:07;;;;;;;63.40;30.80;;;;;;;2.61;100.00;97660.71;67782;1278;1016474;-59
2023/01/19 05:40:10;;;;;;;56.00;24.30;;;;;;;2.64;100.00;97664.91;67810;1278;1016130;-59
2023/01/19 05:43:12;;;;;;;48.60;22.20;;;;;;;2.70;100.00;97665.64;67840;1278;1016471;-60
2023/01/19 05:46:14;;;;;;;42.30;20.40;;;;;;;2.71;100.00;97668.67;67791;1278;1016295;-60
2023/01/19 05:49:17;;;;;;;46.20;20.10;;;;;;;2.69;100.00;97672.41;67775;1278;1016481;-59
2023/01/19 05:52:20;;;;;;;47.60;21.30;;;;;;;2.67;100.00;97675.45;67762;1278;1016242;-59
2023/01/19 05:55:23;;;;;;;53.60;23.30;;;;;;;2.53;100.00;97673.51;67753;1278;1016440;-60
2023/01/19 05:58:25;;;;;;;51.30;22.80;;;;;;;2.35;100.00;97675.70;67723;1278;1015965;-59
2023/01/19 06:01:28;;;;;;;46.20;20.50;;;;;;;2.45;100.00;97674.55;67824;1277;1016581;-59
2023/01/19 06:04:30;;;;;;;48.00;21.60;;;;;;;2.57;100.00;97664.00;67820;1277;1018360;-59
2023/01/19 06:07:33;;;;;;;48.80;21.40;;;;;;;2.58;100.00;97662.04;67752;1278;1017671;-59
2023/01/19 06:10:35;;;;;;;44.20;20.00;;;;;;;2.55;100.00;97661.52;67778;1278;1016466;-59
2023/01/19 06:13:38;;;;;;;45.70;20.80;;;;;;;2.70;100.00;97666.83;67804;1278;1016270;-59
2023/01/19 06:16:41;;;;;;;46.70;20.00;;;;;;;2.78;100.00;97677.34;67767;1278;1016397;-59
2023/01/19 06:19:43;;;;;;;47.30;20.60;;;;;;;2.82;100.00;97676.64;67746;1278;1018118;-59
2023/01/19 06:22:46;;;;;;;47.40;19.70;;;;;;;2.73;100.00;97671.90;67787;1278;1016053;-59
2023/01/19 06:25:49;;;;;;;46.70;20.30;;;;;;;2.71;100.00;97668.85;67783;1278;1016442;-59
2023/01/19 06:28:51;;;;;;;46.50;20.20;;;;;;;2.82;100.00;97662.65;67789;1277;1016346;-60
2023/01/19 06:31:54;;;;;;;46.60;20.70;;;;;;;2.97;100.00;97655.73;67779;1278;1016474;-59
2023/01/19 06:34:56;;;;;;;44.90;19.60;;;;;;;3.03;100.00;97654.92;67820;1278;1016501;-60
2023/01/19 06:37:59;;;;;;;45.60;20.10;;;;;;;2.77;100.00;97651.86;67847;1278;1018023;-59
2023/01/19 06:41:03;;;;;;;44.80;20.10;;;;;;;2.65;100.00;97654.33;67811;1278;1016936;-59
2023/01/19 06:44:06;;;;;;;50.00;22.80;;;;;;;2.56;100.00;97660.78;67773;1278;1016208;-60
2023/01/19 06:47:08;;;;;;;63.90;31.90;;;;;;;2.67;100.00;97665.60;67772;1278;1016161;-59
2023/01/19 06:50:11;;;;;;;59.90;27.80;;;;;;;2.83;100.00;97667.95;67792;1277;1016662;-60
2023/01/19 06:53:13;;;;;;;207.20;86.80;;;;;;;2.83;100.00;97674.70;67803;1278;1016349;-59
2023/01/19 06:56:15;;;;;;;129.80;51.90;;;;;;;2.71;100.00;97682.86;67806;1278;1016283;-60
2023/01/19 06:59:18;;;;;;;111.10;47.60;;;;;;;2.74;100.00;97686.33;67753;1278;1016271;-59
2023/01/19 07:02:22;;;;;;;95.20;40.00;;;;;;;2.73;100.00;97702.95;67814;1278;1016183;-62
2023/01/19 07:05:25;;;;;;;105.10;44.60;;;;;;;2.77;100.00;97710.20;67835;1278;1016503;-59
2023/01/19 07:08:27;;;;;;;69.70;30.10;;;;;;;2.87;100.00;97709.01;67800;1278;1015895;-59
2023/01/19 07:11:30;;;;;;;67.50;28.50;;;;;;;2.92;100.00;97720.21;67834;1278;1016208;-60
2023/01/19 07:14:32;;;;;;;64.10;27.40;;;;;;;2.96;100.00;97724.16;67775;1278;1016504;-59
2023/01/19 07:17:35;;;;;;;;;;;;;;;3.05;100.00;97728.90;67805;1278;1018920;-59
2023/01/19 07:20:37;;;;;;;64.50;28.00;;;;;;;3.12;100.00;97746.00;67846;1278;1016397;-59
2023/01/19 07:23:40;;;;;;;60.60;25.90;;;;;;;3.17;100.00;97749.44;67840;1278;1016399;-59
2023/01/19 07:26:42;;;;;;;63.30;27.30;;;;;;;3.14;100.00;97743.84;67791;1278;1016085;-59
2023/01/19 07:29:45;;;;;;;60.90;24.90;;;;;;;3.18;100.00;97745.73;67769;1278;1016346;-59
2023/01/19 07:32:47;;;;;;;50.90;23.70;;;;;;;3.21;100.00;97748.19;67798;1278;1016454;-59
2023/01/19 07:35:50;;;;;;;;;;;;;;;3.17;100.00;97746.46;67803;1278;1016360;-59
2023/01/19 07:38:52;;;;;;;68.10;30.00;;;;;;;3.11;100.00;97744.36;67762;1278;1016053;-59
2023/01/19 07:41:55;;;;;;;71.40;30.60;;;;;;;3.07;100.00;97743.66;67759;1278;1016399;-59
2023/01/19 07:44:57;;;;;;;65.00;27.60;;;;;;;3.09;100.00;97748.91;67831;1278;1016484;-59
2023/01/19 07:48:00;;;;;;;63.70;28.20;;;;;;;3.13;100.00;97746.98;67822;1278;1016542;-59
2023/01/19 07:51:04;;;;;;;76.60;31.40;;;;;;;3.22;100.00;97752.80;67773;1278;1016361;-60
2023/01/19 07:54:07;;;;;;;84.00;35.00;;;;;;;3.35;100.00;97762.23;67810;1278;1016277;-59
2023/01/19 07:57:09;;;;;;;80.80;34.10;;;;;;;3.48;100.00;97763.48;67823;1277;1016762;-59
2023/01/19 08:00:13;;;;;;;76.50;33.80;;;;;;;3.58;100.00;97749.84;67821;1278;1017208;-59
2023/01/19 08:03:16;;;;;;;70.10;31.80;;;;;;;3.58;100.00;97746.89;67789;1278;1016360;-59
2023/01/19 08:06:19;;;;;;;70.70;32.50;;;;;;;3.65;100.00;97747.23;67760;1278;1016309;-59
2023/01/19 08:09:21;;;;;;;63.70;28.10;;;;;;;3.66;100.00;97752.02;67776;1278;1016328;-60
2023/01/19 08:12:24;;;;;;;;;;;;;;;3.72;100.00;97746.02;67830;1278;1016481;-59
2023/01/19 08:15:26;;;;;;;62.20;26.60;;;;;;;3.77;100.00;97732.45;67787;1278;1015952;-60
2023/01/19 08:18:29;;;;;;;57.10;25.10;;;;;;;4.06;100.00;97723.73;67771;1277;1017991;-60
2023/01/19 08:21:32;;;;;;;58.00;25.20;;;;;;;4.05;100.00;97732.95;67766;1278;1016209;-59
2023/01/19 08:24:34;;;;;;;62.00;25.50;;;;;;;4.03;100.00;97739.95;67824;1278;1015969;-59
2023/01/19 08:27:37;;;;;;;57.50;26.60;;;;;;;4.00;100.00;97740.30;67789;1278;1016423;-59
2023/01/19 08:30:39;;;;;;;59.70;28.00;;;;;;;4.01;100.00;97751.50;67746;1278;1016084;-59
2023/01/19 08:33:42;;;;;;;;;;;;;;;4.03;100.00;97758.83;67828;1277;1016329;-59
2023/01/19 08:36:44;;;;;;;70.80;30.50;;;;;;;4.19;100.00;97766.14;67833;1278;1017151;-59
2023/01/19 08:39:47;;;;;;;71.60;32.00;;;;;;;4.25;100.00;97778.43;67798;1278;1016274;-59
2023/01/19 08:42:49;;;;;;;80.80;37.50;;;;;;;4.24;100.00;97781.65;67765;1278;1016256;-59
2023/01/19 08:45:52;;;;;;;73.40;35.60;;;;;;;4.22;100.00;97786.90;67792;1278;1016516;-59
2023/01/19 08:48:54;;;;;;;71.00;36.50;;;;;;;4.14;100.00;97795.48;67791;1278;1016478;-59
2023/01/19 08:51:56;;;;;;;70.30;34.00;;;;;;;4.08;100.00;97806.30;67810;1277;1016387;-59
2023/01/19 08:54:59;;;;;;;77.70;37.10;;;;;;;4.06;100.00;97812.65;67774;1278;1016322;-59
2023/01/19 08:58:02;;;;;;;72.50;33.40;;;;;;;4.10;100.00;97823.48;67779;1278;1016326;-59
2023/01/19 09:01:05;;;;;;;64.60;31.80;;;;;;;4.15;100.00;97822.21;67771;1277;1016599;-59
2023/01/19 09:04:07;;;;;;;63.10;31.70;;;;;;;4.17;100.00;97813.47;67825;1278;1016471;-59
2023/01/19 09:07:10;;;;;;;71.40;35.50;;;;;;;4.25;100.00;97822.58;67823;1278;1016848;-60
2023/01/19 09:10:12;;;;;;;74.70;37.50;;;;;;;4.39;100.00;97816.46;67836;1277;1016435;-59
2023/01/19 09:13:15;;;;;;;93.90;44.00;;;;;;;4.59;100.00;97808.50;67823;1278;1016518;-60
2023/01/19 09:16:17;;;;;;;100.70;45.40;;;;;;;4.79;100.00;97795.50;67780;1278;1016479;-60
2023/01/19 09:19:20;;;;;;;102.60;46.30;;;;;;;4.79;100.00;97791.04;67850;1278;1016151;-59
2023/01/19 09:22:22;;;;;;;94.60;45.70;;;;;;;4.54;100.00;97790.13;67830;1278;1016527;-59
2023/01/19 09:25:25;;;;;;;97.60;45.70;;;;;;;4.31;100.00;97774.33;67845;1278;1016435;-59
2023/01/19 09:28:28;;;;;;;83.10;37.20;;;;;;;4.43;100.00;97770.06;67803;1278;1016259;-59
2023/01/19 09:31:30;;;;;;;69.60;32.50;;;;;;;4.30;100.00;97763.29;67823;1278;1016430;-59
2023/01/19 09:34:33;;;;;;;70.10;35.40;;;;;;;4.35;100.00;97757.66;67803;1278;1015911;-60
2023/01/19 09:37:35;;;;;;;72.20;35.70;;;;;;;4.57;100.00;97757.73;67768;1277;1016350;-59
2023/01/19 09:40:37;;;;;;;75.90;37.20;;;;;;;4.68;100.00;97759.39;67790;1278;1018465;-59
2023/01/19 09:43:40;;;;;;;78.60;38.80;;;;;;;4.71;100.00;97765.10;67836;1278;1016523;-59
2023/01/19 09:46:42;;;;;;;79.20;40.90;;;;;;;4.69;100.00;97768.48;67819;1277;1016455;-59
2023/01/19 09:49:45;;;;;;;88.80;44.10;;;;;;;4.50;100.00;97770.24;67839;1278;1016561;-59
2023/01/19 09:52:47;;;;;;;82.30;43.10;;;;;;;4.19;100.00;97770.46;67735;1278;1016468;-59
2023/01/19 09:55:50;;;;;;;83.20;40.60;;;;;;;3.97;100.00;97774.53;67806;1278;1018367;-59
2023/01/19 09:58:52;;;;;;;74.20;38.20;;;;;;;3.76;100.00;97782.14;67785;1278;1016484;-59
2023/01/19 10:01:54;;;;;;;78.90;39.20;;;;;;;3.56;100.00;97783.65;67852;1278;1016397;-60
2023/01/19 10:04:57;;;;;;;71.30;36.60;;;;;;;3.45;100.00;97779.84;67768;1278;1016387;-59
2023/01/19 10:08:02;;;;;;;67.10;32.80;;;;;;;3.40;100.00;97777.01;67770;1278;1016503;-59
2023/01/19 10:11:05;;;;;;;61.10;31.10;;;;;;;3.33;100.00;97775.80;67828;1277;1016241;-59
2023/01/19 10:14:07;;;;;;;65.10;31.90;;;;;;;3.25;100.00;97783.95;67784;1278;1016311;-59
2023/01/19 10:17:10;;;;;;;68.30;32.20;;;;;;;3.21;100.00;97778.06;67793;1264;1017386;-59
2023/01/19 10:20:13;;;;;;;64.80;32.50;;;;;;;3.21;100.00;97774.98;67751;1278;1016487;-59
2023/01/19 10:23:16;;;;;;;;;;;;;;;3.23;100.00;97775.05;65301;1278;6401980;-59
2023/01/19 10:26:18;;;;;;;60.40;30.40;;;;;;;3.14;100.00;97774.27;67809;1278;1016279;-59
2023/01/19 10:29:29;;;;;;;62.00;30.50;;;;;;;3.06;100.00;97771.35;67764;1277;1016318;-59
2023/01/19 10:32:31;;;;;;;60.60;30.10;;;;;;;2.98;100.00;97771.89;67857;1278;1016315;-60
2023/01/19 10:35:34;;;;;;;62.70;30.70;;;;;;;2.93;100.00;97776.45;67776;1277;1016385;-59
2023/01/19 10:38:36;;;;;;;66.10;31.30;;;;;;;2.89;100.00;97775.73;67796;1278;1016281;-59
2023/01/19 10:41:39;;;;;;;65.60;32.40;;;;;;;2.92;100.00;97766.80;67866;1278;1016569;-59
2023/01/19 10:44:42;;;;;;;66.10;32.30;;;;;;;2.89;100.00;97763.33;67842;1277;1016973;-59
2023/01/19 10:47:44;;;;;;;68.00;33.00;;;;;;;2.96;100.00;97757.30;67793;1278;1016473;-60
2023/01/19 10:50:47;;;;;;;70.50;33.50;;;;;;;2.96;100.00;97755.94;67790;1278;1016200;-60
2023/01/19 10:53:49;;;;;;;70.20;32.90;;;;;;;3.00;100.00;97754.89;67788;1278;1016394;-59
2023/01/19 10:56:52;;;;;;;72.10;33.60;;;;;;;3.08;100.00;97749.65;67874;1277;1016271;-59
2023/01/19 10:59:54;;;;;;;73.20;33.80;;;;;;;3.14;100.00;97750.75;67794;1278;1016345;-60
2023/01/19 11:02:57;;;;;;;67.60;32.90;;;;;;;3.11;100.00;97751.93;67859;1278;1015911;-59
2023/01/19 11:05:59;;;;;;;81.40;37.60;;;;;;;3.07;100.00;97754.39;67857;1278;1016166;-59
2023/01/19 11:09:02;;;;;;;78.40;35.30;;;;;;;3.02;100.00;97752.02;67849;1277;1018603;-59
2023/01/19 11:12:04;;;;;;;76.40;35.90;;;;;;;3.04;100.00;97742.60;67819;1277;1016441;-59
2023/01/19 11:15:07;;;;;;;75.30;32.80;;;;;;;3.12;100.00;97748.11;67833;1278;1016461;-59
2023/01/19 11:18:09;;;;;;;;;;;;;;;3.05;100.00;97743.42;67842;1278;1016442;-59
2023/01/19 11:21:12;;;;;;;80.50;34.80;;;;;;;2.97;100.00;97744.30;67860;1278;1019583;-59
2023/01/19 11:24:15;;;;;;;79.20;35.10;;;;;;;2.90;100.00;97740.67;67787;1278;1015660;-59
2023/01/19 11:27:18;;;;;;;77.80;35.40;;;;;;;2.89;100.00;97744.67;67874;1278;1016477;-60
2023/01/19 11:30:20;;;;;;;76.10;32.60;;;;;;;2.87;100.00;97740.64;67838;1277;1017061;-59
2023/01/19 11:33:23;;;;;;;76.30;32.90;;;;;;;2.66;100.00;97740.05;67745;1278;1015802;-59
2023/01/19 11:36:25;;;;;;;79.60;32.40;;;;;;;2.56;100.00;97734.13;67790;1278;1016239;-60
2023/01/19 11:39:27;;;;;;;77.60;33.10;;;;;;;2.55;100.00;97736.20;67791;1277;1016843;-59
2023/01/19 11:42:30;;;;;;;77.40;33.90;;;;;;;2.56;100.00;97732.20;67828;1277;1018310;-59
2023/01/19 11:45:32;;;;;;;78.70;34.00;;;;;;;2.58;100.00;97726.78;67864;1277;1016406;-59
2023/01/19 11:48:35;;;;;;;80.80;34.30;;;;;;;2.63;100.00;97724.83;67802;1277;1018980;-59
2023/01/19 11:51:37;;;;;;;80.40;33.10;;;;;;;2.71;100.00;97725.81;67833;1277;1018913;-59
2023/01/19 11:54:40;;;;;;;80.40;33.70;;;;;;;2.69;100.00;97725.92;67861;1278;1016307;-59
2023/01/19 11:57:42;;;;;;;76.00;29.80;;;;;;;2.68;100.00;97723.38;67833;1278;1016348;-59
2023/01/19 12:00:45;;;;;;;75.60;30.30;;;;;;;2.62;100.00;97722.13;67842;1277;1018059;-59
2023/01/19 12:03:47;;;;;;;78.80;31.20;;;;;;;2.52;100.00;97723.59;67799;1277;1017977;-60
2023/01/19 12:06:50;;;;;;;78.60;29.30;;;;;;;2.50;100.00;97719.22;67834;1263;1015871;-59
2023/01/19 12:09:52;;;;;;;81.00;31.40;;;;;;;2.48;100.00;97716.20;67843;1278;1018997;-59
2023/01/19 12:12:55;;;;;;;71.30;29.10;;;;;;;2.49;100.00;97716.86;67814;1278;1016530;-59
2023/01/19 12:15:57;;;;;;;83.20;30.70;;;;;;;2.52;100.00;97718.41;67778;1278;1017912;-59
2023/01/19 12:19:00;;;;;;;;;;;;;;;2.54;100.00;97715.23;67848;1278;1016580;-59
2023/01/19 12:22:02;;;;;;;77.90;29.90;;;;;;;2.54;100.00;97710.57;67827;1278;1016391;-59
2023/01/19 12:25:05;;;;;;;80.60;30.70;;;;;;;2.61;100.00;97712.16;67838;1277;1016298;-59
2023/01/19 12:28:07;;;;;;;78.00;29.80;;;;;;;2.67;100.00;97708.61;67780;1278;1016494;-59
2023/01/19 12:31:09;;;;;;;77.30;28.90;;;;;;;2.63;100.00;97711.54;67794;1278;1016608;-59
2023/01/19 12:34:12;;;;;;;71.60;29.30;;;;;;;2.61;100.00;97714.57;67827;1278;1018450;-59
2023/01/19 12:37:14;;;;;;;75.20;28.70;;;;;;;2.67;100.00;97717.59;67862;1278;1015990;-59
2023/01/19 12:40:17;;;;;;;77.20;28.90;;;;;;;2.70;100.00;97720.52;67827;1278;1015850;-59
2023/01/19 12:43:19;;;;;;;72.50;28.00;;;;;;;2.66;100.00;97727.29;67813;1278;1016907;-59
2023/01/19 12:46:22;;;;;;;67.70;26.40;;;;;;;2.58;100.00;97727.79;67714;1277;1016174;-60
2023/01/19 12:49:25;;;;;;;68.30;27.20;;;;;;;2.46;100.00;97725.95;67832;1277;1017191;-59
2023/01/19 12:52:28;;;;;;;71.90;26.50;;;;;;;2.41;100.00;97718.77;67842;1278;1016788;-60
2023/01/19 12:55:30;;;;;;;67.90;25.30;;;;;;;2.40;100.00;97715.67;67802;1277;1016459;-59
2023/01/19 12:58:33;;;;;;;66.90;25.50;;;;;;;2.37;100.00;97716.88;67849;1278;1016450;-59
2023/01/19 13:01:35;;;;;;;64.80;25.00;;;;;;;2.44;100.00;97719.14;67789;1277;1016212;-59
2023/01/19 13:04:38;;;;;;;64.10;25.20;;;;;;;2.48;100.00;97714.81;67812;1278;1018003;-59
2023/01/19 13:07:40;;;;;;;68.70;24.70;;;;;;;2.50;100.00;97718.16;67868;1277;1016374;-59
2023/01/19 13:10:43;;;;;;;62.50;22.90;;;;;;;2.41;100.00;97718.56;67826;1277;1016078;-59
2023/01/19 13:13:46;;;;;;;65.10;24.40;;;;;;;2.36;100.00;97714.52;67795;1277;1016488;-59
2023/01/19 13:16:49;;;;;;;60.00;23.20;;;;;;;2.41;100.00;97709.75;67838;1277;1016407;-59
2023/01/19 13:19:51;;;;;;;67.50;25.80;;;;;;;2.51;100.00;97717.28;67857;1277;1016267;-60
2023/01/19 13:22:54;;;;;;;62.60;24.20;;;;;;;2.56;100.00;97727.06;67777;1277;1016404;-59
2023/01/19 13:25:56;;;;;;;69.10;26.00;;;;;;;2.53;100.00;97727.68;67811;1277;1016132;-60
2023/01/19 13:28:59;;;;;;;66.50;22.50;;;;;;;2.55;100.00;97729.01;67849;1278;1016539;-59
2023/01/19 13:32:02;;;;;;;65.20;24.10;;;;;;;2.53;100.00;97735.64;67806;1278;1017456;-59
2023/01/19 13:35:05;;;;;;;58.50;23.20;;;;;;;2.52;100.00;97739.15;67860;1277;1016295;-60
2023/01/19 13:38:08;;;;;;;67.20;26.30;;;;;;;2.45;100.00;97741.88;67823;1277;1016502;-59
2023/01/19 13:41:10;;;;;;;62.10;22.80;;;;;;;2.52;100.00;97746.02;67783;1277;1016252;-59
2023/01/19 13:44:12;;;;;;;61.50;23.90;;;;;;;2.68;100.00;97749.45;67835;1278;1016193;-59
2023/01/19 13:47:15;;;;;;;62.10;23.70;;;;;;;2.77;100.00;97744.02;67837;1277;1016572;-60
2023/01/19 13:50:18;;;;;;;62.10;24.10;;;;;;;2.86;100.00;97746.55;67820;1278;1016299;-59
2023/01/19 13:53:22;;;;;;;;;;;;;;;2.96;100.00;97742.98;67811;1278;1016095;-59
2023/01/19 13:56:26;;;;;;;61.50;22.10;;;;;;;2.93;100.00;97750.54;67830;1277;1016506;-60